Time;durP1;ratioP1;P1;durP2;ratioP2;P2;SDS_P1;SDS_P2;PMS_P1;PMS_P2;Temp;Humidity;BMP_temperature;BMP_pressure;BME280_temperature;BME280_humidity;BME280_pressure;Samples;Min_cycle;Max_cycle;Signal;HPM_P1;HPM_P2
2021/01/10 00:00:06;;;;;;;74.93;42.13;;;1.80;99.90;;;;;;5035152;28;20288;-86
2021/01/10 00:02:32;;;;;;;69.38;41.10;;;1.70;99.90;;;;;;5035080;28;20205;-86
2021/01/10 00:04:58;;;;;;;63.97;39.17;;;1.80;99.90;;;;;;5034191;28;20195;-86
2021/01/10 00:07:26;;;;;;;64.78;37.75;;;1.70;99.90;;;;;;5034156;28;20206;-86
2021/01/10 00:09:53;;;;;;;69.55;41.22;;;1.70;99.90;;;;;;5035782;28;20573;-86
2021/01/10 00:12:21;;;;;;;65.70;37.38;;;1.80;99.90;;;;;;5037563;28;20186;-86
2021/01/10 00:14:47;;;;;;;71.22;40.40;;;1.80;99.90;;;;;;5034437;28;20193;-86
2021/01/10 00:17:13;;;;;;;72.32;40.83;;;1.80;99.90;;;;;;5039048;28;20217;-86
2021/01/10 00:19:42;;;;;;;86.50;46.20;;;1.70;99.90;;;;;;5052843;28;20441;-86
2021/01/10 00:22:11;;;;;;;60.55;37.45;;;1.80;99.90;;;;;;5034183;28;20244;-86
2021/01/10 00:24:39;;;;;;;66.20;43.15;;;1.70;99.90;;;;;;5033626;28;20190;-86
2021/01/10 00:27:07;;;;;;;62.45;38.53;;;1.70;99.90;;;;;;5037081;28;20225;-86
2021/01/10 00:29:34;;;;;;;74.93;42.45;;;1.70;99.90;;;;;;5036934;28;20199;-86
2021/01/10 00:32:01;;;;;;;56.30;37.67;;;1.70;99.90;;;;;;5037244;28;20207;-87
2021/01/10 00:34:27;;;;;;;65.70;39.70;;;1.70;99.90;;;;;;5037629;28;20209;-86
2021/01/10 00:36:53;;;;;;;65.68;38.08;;;1.70;99.90;;;;;;5037486;28;20217;-86
2021/01/10 00:39:19;;;;;;;68.57;39.85;;;1.70;99.90;;;;;;5037832;28;20194;-86
2021/01/10 00:41:47;;;;;;;74.82;40.83;;;1.80;99.90;;;;;;5040500;28;20252;-86
2021/01/10 00:44:13;;;;;;;64.30;40.17;;;1.70;99.90;;;;;;5047486;28;20585;-86
2021/01/10 00:46:39;;;;;;;70.78;42.75;;;1.70;99.90;;;;;;5037299;28;20302;-86
2021/01/10 00:49:06;;;;;;;72.10;43.28;;;1.70;99.90;;;;;;5044150;28;20200;-86
2021/01/10 00:51:32;;;;;;;75.45;42.72;;;1.70;99.90;;;;;;5052632;28;20195;-86
2021/01/10 00:53:58;;;;;;;82.53;40.63;;;1.70;99.90;;;;;;5053051;28;20653;-86
2021/01/10 00:56:24;;;;;;;80.78;42.55;;;1.70;99.90;;;;;;5050486;28;20198;-86
2021/01/10 00:58:52;;;;;;;82.85;48.53;;;1.70;99.90;;;;;;5041152;28;20573;-86
2021/01/10 01:01:20;;;;;;;80.97;47.88;;;1.70;99.90;;;;;;5044514;28;20189;-86
2021/01/10 01:03:48;;;;;;;77.82;42.65;;;1.70;99.90;;;;;;5056644;28;20199;-86
2021/01/10 01:06:14;;;;;;;76.80;44.47;;;1.70;99.90;;;;;;5050266;28;20249;-86
2021/01/10 01:08:42;;;;;;;87.63;46.60;;;1.70;99.90;;;;;;5039495;28;20182;-86
2021/01/10 01:11:08;;;;;;;94.18;48.83;;;1.70;99.90;;;;;;5051426;28;20201;-86
2021/01/10 01:13:34;;;;;;;87.40;47.83;;;1.70;99.90;;;;;;5055372;28;20193;-86
2021/01/10 01:16:01;;;;;;;79.88;45.45;;;1.70;99.90;;;;;;5041926;28;20194;-86
2021/01/10 01:18:28;;;;;;;83.43;47.20;;;1.60;99.90;;;;;;5039875;28;20206;-87
2021/01/10 01:20:54;;;;;;;101.65;50.55;;;1.70;99.90;;;;;;5044063;28;20195;-86
2021/01/10 01:23:20;;;;;;;79.60;44.30;;;1.70;99.90;;;;;;5036648;28;20186;-86
2021/01/10 01:25:46;;;;;;;91.18;50.17;;;1.70;99.90;;;;;;5045214;28;20217;-86
2021/01/10 01:28:13;;;;;;;108.50;53.20;;;1.70;99.90;;;;;;5040901;28;20196;-87
2021/01/10 01:30:39;;;;;;;97.80;49.97;;;1.70;99.90;;;;;;5056146;28;20250;-85
2021/01/10 01:33:06;;;;;;;99.53;47.55;;;1.70;99.90;;;;;;5056270;28;20187;-86
2021/01/10 01:35:33;;;;;;;98.78;49.30;;;1.80;99.90;;;;;;5039965;28;20538;-86
2021/01/10 01:37:59;;;;;;;88.38;48.75;;;1.80;99.90;;;;;;5036104;28;20219;-86
2021/01/10 01:40:25;;;;;;;92.43;47.42;;;1.80;99.90;;;;;;5045996;28;20187;-86
2021/01/10 01:42:52;;;;;;;99.13;52.78;;;1.80;99.90;;;;;;5043536;28;20227;-86
2021/01/10 01:45:18;;;;;;;93.10;46.78;;;1.80;99.90;;;;;;5048352;28;20194;-86
2021/01/10 01:47:45;;;;;;;85.60;49.20;;;1.80;99.90;;;;;;5055475;28;20182;-86
2021/01/10 01:50:12;;;;;;;83.32;45.70;;;1.80;99.90;;;;;;5043036;28;20191;-86
2021/01/10 01:52:40;;;;;;;82.80;47.95;;;1.80;99.90;;;;;;5052737;28;20198;-86
2021/01/10 01:55:07;;;;;;;87.50;46.42;;;1.70;99.90;;;;;;5036336;28;20191;-86
2021/01/10 01:57:34;;;;;;;67.63;41.13;;;1.70;99.90;;;;;;5035468;28;20209;-85
2021/01/10 02:00:01;;;;;;;83.75;44.75;;;1.60;99.90;;;;;;5043406;28;20201;-86
2021/01/10 02:02:27;;;;;;;84.55;45.95;;;1.60;99.90;;;;;;5035619;28;20289;-86
2021/01/10 02:05:00;;;;;;;72.95;44.65;;;1.50;99.90;;;;;;5035716;28;20189;-86
2021/01/10 02:07:34;;;;;;;84.85;47.13;;;1.60;99.90;;;;;;5035523;28;20240;-86
2021/01/10 02:10:05;;;;;;;76.45;44.97;;;1.60;99.90;;;;;;5037360;28;20202;-86
2021/01/10 02:12:35;;;;;;;84.38;44.42;;;1.60;99.90;;;;;;5048705;28;20194;-86
2021/01/10 02:15:07;;;;;;;74.65;44.17;;;1.60;99.90;;;;;;5050343;28;20192;-86
2021/01/10 02:17:34;;;;;;;93.50;46.65;;;1.60;99.90;;;;;;5054916;28;20209;-86
2021/01/10 02:20:06;;;;;;;84.70;47.20;;;1.60;99.90;;;;;;5034867;28;20238;-86
2021/01/10 02:22:39;;;;;;;84.82;45.00;;;1.70;99.90;;;;;;5036044;28;20248;-86
2021/01/10 02:25:07;;;;;;;72.60;42.70;;;1.70;99.90;;;;;;5038757;28;20189;-86
2021/01/10 02:27:33;;;;;;;80.53;45.60;;;1.70;99.90;;;;;;5055397;28;20287;-86
2021/01/10 02:30:01;;;;;;;75.32;43.67;;;1.70;99.90;;;;;;5039084;28;20632;-86
2021/01/10 02:32:30;;;;;;;78.70;43.65;;;1.70;99.90;;;;;;5049357;28;20613;-86
2021/01/10 02:34:59;;;;;;;71.20;42.40;;;1.60;99.90;;;;;;5047578;28;20194;-86
2021/01/10 02:37:54;;;;;;;77.00;41.92;;;1.70;99.90;;;;;;5035075;28;20210;-85
2021/01/10 02:40:31;;;;;;;76.00;41.28;;;1.70;99.90;;;;;;5036454;28;20198;-86
2021/01/10 02:43:02;;;;;;;67.53;40.15;;;1.70;99.90;;;;;;5035069;28;20191;-86
2021/01/10 02:45:29;;;;;;;66.43;42.05;;;1.70;99.90;;;;;;5035137;28;20519;-86
2021/01/10 02:47:55;;;;;;;69.60;43.60;;;1.70;99.90;;;;;;5044896;28;20191;-86
2021/01/10 02:50:22;;;;;;;66.85;40.25;;;1.70;99.90;;;;;;5041451;28;20196;-86
2021/01/10 02:52:48;;;;;;;72.28;39.78;;;1.70;99.90;;;;;;5055030;28;20190;-86
2021/01/10 02:55:16;;;;;;;57.22;38.38;;;1.60;99.90;;;;;;5052036;28;20195;-86
2021/01/10 02:57:46;;;;;;;58.38;37.22;;;1.70;99.90;;;;;;5044155;28;20567;-86
2021/01/10 03:00:14;;;;;;;63.63;38.33;;;1.70;99.90;;;;;;5034595;28;20554;-86
2021/01/10 03:02:42;;;;;;;74.07;40.78;;;1.70;99.90;;;;;;5047625;28;20218;-86
2021/01/10 03:05:11;;;;;;;66.05;39.30;;;1.70;99.90;;;;;;5056502;28;20629;-86
2021/01/10 03:07:40;;;;;;;68.97;38.03;;;1.70;99.90;;;;;;5054883;28;20589;-86
2021/01/10 03:10:09;;;;;;;83.00;39.35;;;1.70;99.90;;;;;;5057491;28;20243;-87
2021/01/10 03:12:36;;;;;;;65.55;38.30;;;1.70;99.90;;;;;;5043948;28;20186;-86
2021/01/10 03:15:06;;;;;;;72.07;37.72;;;1.70;99.90;;;;;;5074497;28;20217;-85
2021/01/10 03:17:36;;;;;;;60.15;38.35;;;1.70;99.90;;;;;;5053290;28;20211;-86
2021/01/10 03:20:04;;;;;;;62.15;36.88;;;1.70;99.90;;;;;;5037285;28;20202;-86
2021/01/10 03:22:30;;;;;;;74.65;40.38;;;1.70;99.90;;;;;;5049187;28;20191;-87
2021/01/10 03:24:57;;;;;;;72.05;39.78;;;1.60;99.90;;;;;;5049494;28;20198;-86
2021/01/10 03:27:23;;;;;;;61.75;39.20;;;1.60;99.90;;;;;;5035176;28;20222;-86
2021/01/10 03:29:49;;;;;;;80.70;40.20;;;1.60;99.90;;;;;;5045515;28;20190;-86
2021/01/10 03:32:17;;;;;;;83.03;43.63;;;1.60;99.90;;;;;;5044523;28;20188;-86
2021/01/10 03:34:43;;;;;;;74.55;42.58;;;1.50;99.90;;;;;;5033770;28;20209;-86
2021/01/10 03:37:09;;;;;;;73.68;46.72;;;1.60;99.90;;;;;;5035511;28;20194;-86
2021/01/10 03:39:36;;;;;;;86.18;43.22;;;1.60;99.90;;;;;;5051517;28;20192;-86
2021/01/10 03:42:03;;;;;;;56.20;38.33;;;1.60;99.90;;;;;;5050310;28;20236;-86
2021/01/10 03:44:29;;;;;;;62.58;39.85;;;1.60;99.90;;;;;;5052873;28;20198;-86
2021/01/10 03:46:56;;;;;;;65.07;37.60;;;1.60;99.90;;;;;;5047039;28;20183;-86
2021/01/10 03:49:54;;;;;;;56.92;37.95;;;1.60;99.90;;;;;;5053983;28;20189;-86
2021/01/10 03:52:20;;;;;;;66.38;39.47;;;1.60;99.90;;;;;;5038490;28;20636;-87
2021/01/10 03:54:46;;;;;;;62.13;39.90;;;1.50;99.90;;;;;;5034260;28;20551;-86
2021/01/10 03:57:13;;;;;;;63.25;37.20;;;1.40;99.90;;;;;;5037190;28;20189;-86
2021/01/10 03:59:40;;;;;;;63.33;40.08;;;1.40;99.90;;;;;;5034156;28;20258;-86
2021/01/10 04:02:06;;;;;;;78.63;39.80;;;1.40;99.90;;;;;;5038116;28;20204;-86
2021/01/10 04:04:32;;;;;;;67.22;40.40;;;1.30;99.90;;;;;;5037807;28;20188;-86
2021/01/10 04:07:00;;;;;;;63.35;38.67;;;1.30;99.90;;;;;;5037686;28;20201;-87
2021/01/10 04:09:26;;;;;;;61.95;39.10;;;1.30;99.90;;;;;;5038274;28;20284;-86
2021/01/10 04:11:52;;;;;;;66.28;41.80;;;1.30;99.90;;;;;;5045531;28;20196;-86
2021/01/10 04:14:19;;;;;;;60.50;39.80;;;1.40;99.90;;;;;;5058012;28;20189;-86
2021/01/10 04:16:45;;;;;;;55.75;34.78;;;1.30;99.90;;;;;;5051867;28;20186;-87
2021/01/10 04:19:11;;;;;;;62.03;37.53;;;1.20;99.90;;;;;;5038224;28;20229;-86
2021/01/10 04:21:37;;;;;;;66.20;37.80;;;1.10;99.90;;;;;;5041895;28;20541;-86
2021/01/10 04:24:05;;;;;;;64.72;39.90;;;1.00;99.90;;;;;;5058394;28;20197;-86
2021/01/10 04:26:37;;;;;;;75.13;40.40;;;1.00;99.90;;;;;;5049501;28;20711;-86
2021/01/10 04:29:04;;;;;;;67.15;39.70;;;0.90;99.90;;;;;;5057199;28;20254;-86
2021/01/10 04:31:30;;;;;;;79.47;43.45;;;0.90;99.90;;;;;;5049416;28;20197;-86
2021/01/10 04:33:57;;;;;;;69.93;43.78;;;0.80;99.90;;;;;;5037802;28;20225;-86
2021/01/10 04:36:28;;;;;;;76.40;42.22;;;0.80;99.90;;;;;;5046686;28;20541;-86
2021/01/10 04:38:55;;;;;;;74.93;41.22;;;0.80;99.90;;;;;;5050245;28;20579;-86
2021/01/10 04:41:23;;;;;;;70.68;40.60;;;0.80;99.90;;;;;;5048072;28;20191;-86
2021/01/10 04:43:50;;;;;;;68.97;39.67;;;0.80;99.90;;;;;;5037765;28;20671;-86
2021/01/10 04:46:17;;;;;;;78.53;43.38;;;0.90;99.90;;;;;;5037106;28;20527;-86
2021/01/10 04:48:44;;;;;;;65.25;39.15;;;0.90;99.90;;;;;;5049432;28;20188;-86
2021/01/10 04:51:15;;;;;;;77.13;46.55;;;0.80;99.90;;;;;;5044507;28;20193;-86
2021/01/10 04:53:43;;;;;;;67.45;40.70;;;0.90;99.90;;;;;;5056999;28;20196;-86
2021/01/10 04:56:12;;;;;;;66.47;38.22;;;0.90;99.90;;;;;;5051059;28;20656;-86
2021/01/10 04:58:42;;;;;;;64.95;37.33;;;0.90;99.90;;;;;;5056247;28;20227;-86
2021/01/10 05:01:16;;;;;;;70.90;40.80;;;0.90;99.90;;;;;;5047302;28;20190;-86
2021/01/10 05:03:43;;;;;;;63.75;40.97;;;0.90;99.90;;;;;;5055502;28;20602;-86
2021/01/10 05:06:10;;;;;;;66.97;37.50;;;0.90;99.90;;;;;;5038430;28;20188;-86
2021/01/10 05:08:37;;;;;;;68.75;40.35;;;0.80;99.90;;;;;;5037277;28;20205;-86
2021/01/10 05:11:03;;;;;;;76.72;41.10;;;0.80;99.90;;;;;;5036686;28;20650;-86
2021/01/10 05:13:30;;;;;;;77.72;44.30;;;0.80;99.90;;;;;;5042116;28;20193;-86
2021/01/10 05:15:57;;;;;;;76.00;39.83;;;0.80;99.90;;;;;;5045352;28;20554;-86
2021/01/10 05:18:24;;;;;;;59.67;39.47;;;0.80;99.90;;;;;;5037697;28;20287;-86
2021/01/10 05:20:53;;;;;;;78.35;42.08;;;0.80;99.90;;;;;;5044761;28;20187;-86
2021/01/10 05:23:23;;;;;;;74.55;42.90;;;0.80;99.90;;;;;;5053429;28;20186;-86
2021/01/10 05:26:03;;;;;;;79.95;40.45;;;0.90;99.90;;;;;;5036089;28;20231;-86
2021/01/10 05:28:30;;;;;;;84.32;42.47;;;0.80;99.90;;;;;;5042995;28;20201;-86
2021/01/10 05:30:59;;;;;;;66.55;41.65;;;0.80;99.90;;;;;;5038360;28;20309;-86
2021/01/10 05:33:25;;;;;;;84.32;46.65;;;0.80;99.90;;;;;;5035530;28;20196;-86
2021/01/10 05:35:53;;;;;;;86.20;45.88;;;0.80;99.90;;;;;;5035926;28;20656;-86
2021/01/10 05:38:27;;;;;;;84.70;45.03;;;0.70;99.90;;;;;;5035705;28;20222;-86
2021/01/10 05:40:55;;;;;;;92.20;45.22;;;0.80;99.90;;;;;;5038796;28;20195;-86
2021/01/10 05:43:22;;;;;;;83.50;44.92;;;0.80;99.90;;;;;;5051973;28;20193;-86
2021/01/10 05:45:49;;;;;;;89.10;49.35;;;0.80;99.90;;;;;;5051882;28;20547;-86
2021/01/10 05:48:17;;;;;;;86.68;49.70;;;0.80;99.90;;;;;;5049646;28;20238;-86
2021/01/10 05:50:45;;;;;;;92.68;48.60;;;0.70;99.90;;;;;;5053190;28;20190;-86
2021/01/10 05:53:15;;;;;;;90.53;49.25;;;0.70;99.90;;;;;;5048699;28;20549;-86
2021/01/10 05:55:55;;;;;;;85.05;52.10;;;0.70;99.90;;;;;;5041614;28;20191;-86
2021/01/10 05:58:23;;;;;;;88.30;49.58;;;0.70;99.90;;;;;;5048260;28;20212;-86
2021/01/10 06:00:52;;;;;;;91.88;51.00;;;0.80;99.90;;;;;;5037134;28;20595;-86
2021/01/10 06:03:20;;;;;;;106.32;57.95;;;0.70;99.90;;;;;;5036190;28;20201;-86
2021/01/10 06:05:58;;;;;;;99.93;49.83;;;0.80;99.90;;;;;;5052384;28;20211;-87
2021/01/10 06:08:29;;;;;;;107.80;53.78;;;0.70;99.90;;;;;;5047237;28;20189;-86
2021/01/10 06:11:16;;;;;;;91.65;50.17;;;0.70;99.90;;;;;;5049094;28;20237;-86
2021/01/10 06:13:51;;;;;;;92.28;51.05;;;0.70;99.90;;;;;;5039613;28;20195;-86
2021/01/10 06:16:19;;;;;;;105.43;48.85;;;0.70;99.90;;;;;;5035065;28;20196;-87
2021/01/10 06:18:49;;;;;;;131.55;52.50;;;0.70;99.90;;;;;;5050075;28;20216;-86
2021/01/10 06:21:21;;;;;;;199.05;67.22;;;0.70;99.90;;;;;;5055128;28;20731;-86
2021/01/10 06:23:51;;;;;;;214.23;69.32;;;0.60;99.90;;;;;;5043099;28;20194;-86
2021/01/10 06:26:19;;;;;;;131.20;54.63;;;0.60;99.90;;;;;;5038619;28;20240;-87
2021/01/10 06:28:51;;;;;;;109.40;52.33;;;0.60;99.90;;;;;;5048097;28;20558;-88
2021/01/10 06:31:22;;;;;;;114.05;53.13;;;0.60;99.90;;;;;;5040850;28;20196;-87
2021/01/10 06:33:54;;;;;;;114.53;50.35;;;0.60;99.90;;;;;;5054242;28;20187;-88
2021/01/10 06:36:23;;;;;;;83.00;43.67;;;0.60;99.90;;;;;;5053824;28;20220;-87
2021/01/10 06:38:52;;;;;;;84.97;44.75;;;0.60;99.90;;;;;;5039347;28;20212;-89
2021/01/10 06:41:43;;;;;;;73.10;41.83;;;0.60;99.90;;;;;;5036968;28;20211;-88
2021/01/10 06:44:10;;;;;;;81.22;44.78;;;0.60;99.90;;;;;;5035476;28;20258;-88
2021/01/10 06:46:36;;;;;;;95.07;46.60;;;0.60;99.90;;;;;;5045659;28;20252;-87
2021/01/10 06:49:04;;;;;;;89.47;50.97;;;0.50;99.90;;;;;;5034812;28;20188;-88
2021/01/10 06:51:31;;;;;;;81.57;42.72;;;0.50;99.90;;;;;;5034739;28;20194;-88
2021/01/10 06:54:04;;;;;;;83.28;45.85;;;0.50;99.90;;;;;;5035403;28;20204;-87
2021/01/10 06:56:30;;;;;;;77.35;47.15;;;0.50;99.90;;;;;;5046385;28;20652;-87
2021/01/10 06:59:04;;;;;;;75.72;42.05;;;0.60;99.90;;;;;;5050500;28;20255;-87
2021/01/10 07:02:01;;;;;;;97.22;45.53;;;0.60;99.90;;;;;;5043481;28;20189;-87
2021/01/10 07:05:01;;;;;;;85.63;47.13;;;0.60;99.90;;;;;;5035852;28;20626;-86
2021/01/10 07:07:36;;;;;;;76.40;48.55;;;0.50;99.90;;;;;;5031964;28;20196;-87
2021/01/10 07:10:11;;;;;;;76.95;42.53;;;0.60;99.90;;;;;;5043125;28;20202;-88
2021/01/10 07:12:37;;;;;;;79.18;45.20;;;0.60;99.90;;;;;;5040443;28;20201;-87
2021/01/10 07:15:26;;;;;;;89.85;47.22;;;0.60;99.90;;;;;;5035716;28;20189;-88
2021/01/10 07:18:04;;;;;;;72.93;42.78;;;0.60;99.90;;;;;;5041083;28;20220;-87
2021/01/10 07:20:46;;;;;;;83.60;42.50;;;0.60;99.90;;;;;;5056380;28;20200;-87
2021/01/10 07:23:32;;;;;;;74.90;44.80;;;0.60;99.90;;;;;;5055964;28;20188;-87
2021/01/10 07:26:00;;;;;;;74.22;42.67;;;0.60;99.90;;;;;;5046577;28;20228;-87
2021/01/10 07:28:40;;;;;;;97.18;48.03;;;0.70;99.90;;;;;;5051610;28;20191;-87
2021/01/10 07:31:13;;;;;;;72.85;45.00;;;0.60;99.90;;;;;;5047201;28;20220;-86
2021/01/10 07:33:40;;;;;;;107.72;50.33;;;0.60;99.90;;;;;;5051944;28;20192;-86
2021/01/10 07:36:07;;;;;;;76.45;44.65;;;0.70;99.90;;;;;;5040535;28;20191;-88
2021/01/10 07:38:36;;;;;;;82.53;43.35;;;0.70;99.90;;;;;;5034105;28;20224;-88
2021/01/10 07:41:20;;;;;;;81.30;45.42;;;0.70;99.90;;;;;;5047753;28;20199;-88
2021/01/10 07:43:52;;;;;;;77.35;45.80;;;0.80;99.90;;;;;;5059597;28;20246;-86
2021/01/10 07:46:58;;;;;;;77.07;44.05;;;0.70;99.90;;;;;;5040068;28;20208;-87
2021/01/10 07:49:25;;;;;;;82.05;42.75;;;0.80;99.90;;;;;;5041377;28;20200;-87
2021/01/10 07:51:53;;;;;;;72.10;43.38;;;0.80;99.90;;;;;;5035533;28;20225;-87
2021/01/10 07:54:51;;;;;;;70.03;39.60;;;0.80;99.90;;;;;;5034112;28;20201;-86
2021/01/10 07:57:25;;;;;;;80.18;43.45;;;0.80;99.90;;;;;;5043589;28;20652;-86
2021/01/10 08:00:14;;;;;;;79.20;42.97;;;0.90;99.90;;;;;;5039765;28;20200;-87
2021/01/10 08:02:51;;;;;;;77.57;43.45;;;0.90;99.90;;;;;;5042777;28;20201;-88
2021/01/10 08:05:19;;;;;;;77.72;44.70;;;0.90;99.90;;;;;;5035917;28;20196;-87
2021/01/10 08:07:50;;;;;;;73.03;43.15;;;0.90;99.90;;;;;;5034131;28;20204;-87
2021/01/10 08:10:17;;;;;;;58.25;39.13;;;0.90;99.90;;;;;;5033894;28;20185;-87
2021/01/10 08:12:43;;;;;;;74.78;43.70;;;1.00;99.90;;;;;;5050849;28;20224;-87
2021/01/10 08:15:12;;;;;;;73.72;40.78;;;1.00;99.90;;;;;;5046000;28;20190;-87
2021/01/10 08:17:39;;;;;;;71.88;42.05;;;1.00;99.90;;;;;;5053168;28;20238;-88
2021/01/10 08:20:07;;;;;;;74.47;40.67;;;1.10;99.90;;;;;;5045154;28;20200;-88
2021/01/10 08:22:33;;;;;;;61.50;41.33;;;1.10;99.90;;;;;;5038814;28;20589;-88
2021/01/10 08:25:01;;;;;;;70.32;39.13;;;1.10;99.90;;;;;;5039183;28;20650;-87
2021/01/10 08:27:28;;;;;;;62.83;41.63;;;1.10;99.90;;;;;;5053888;28;20279;-87
2021/01/10 08:29:54;;;;;;;72.00;38.10;;;1.10;99.90;;;;;;5053989;28;20202;-88
2021/01/10 08:32:21;;;;;;;79.22;44.50;;;1.10;99.90;;;;;;5033978;28;20197;-87
2021/01/10 08:34:48;;;;;;;69.13;35.85;;;1.10;99.90;;;;;;5042618;28;20197;-87
2021/01/10 08:37:19;;;;;;;77.05;42.33;;;1.10;99.90;;;;;;5047201;28;20190;-88
2021/01/10 08:39:56;;;;;;;63.33;40.25;;;1.20;99.90;;;;;;5053700;28;20217;-88
2021/01/10 08:42:24;;;;;;;74.05;41.30;;;1.20;99.90;;;;;;5037386;28;20204;-88
2021/01/10 08:44:50;;;;;;;80.68;45.97;;;1.20;99.90;;;;;;5037874;28;20204;-88
2021/01/10 08:47:17;;;;;;;67.82;39.13;;;1.30;99.90;;;;;;5057851;28;20267;-88
2021/01/10 08:49:43;;;;;;;64.25;36.55;;;1.30;99.90;;;;;;5035434;28;20201;-89
2021/01/10 08:52:11;;;;;;;58.20;38.75;;;1.30;99.90;;;;;;5047538;28;20189;-86
2021/01/10 08:54:37;;;;;;;57.58;35.22;;;1.40;99.90;;;;;;5037504;28;20197;-86
2021/01/10 08:57:04;;;;;;;59.70;33.78;;;1.50;99.90;;;;;;5038723;28;20186;-87
2021/01/10 08:59:38;;;;;;;62.35;34.45;;;1.50;99.90;;;;;;5042809;28;20324;-87
2021/01/10 09:02:08;;;;;;;63.80;34.45;;;1.60;99.90;;;;;;5036399;28;20234;-87
2021/01/10 09:04:40;;;;;;;62.80;37.35;;;1.60;99.90;;;;;;5036615;28;20192;-87
2021/01/10 09:07:15;;;;;;;67.13;33.85;;;1.60;99.90;;;;;;5050031;28;20191;-86
2021/01/10 09:09:46;;;;;;;54.15;33.78;;;1.70;99.90;;;;;;5047472;28;20204;-87
2021/01/10 09:12:20;;;;;;;56.40;33.50;;;1.70;99.90;;;;;;5037086;28;20187;-86
2021/01/10 09:14:52;;;;;;;67.20;35.75;;;1.80;99.90;;;;;;5036550;28;20202;-87
2021/01/10 09:17:26;;;;;;;62.65;35.03;;;1.80;99.90;;;;;;5036632;28;20191;-86
2021/01/10 09:19:59;;;;;;;52.85;35.10;;;1.90;99.90;;;;;;5036154;28;20222;-86
2021/01/10 09:22:30;;;;;;;63.85;35.38;;;1.90;99.90;;;;;;5036312;28;20202;-86
2021/01/10 09:24:57;;;;;;;59.92;34.42;;;1.90;99.90;;;;;;5036145;28;20202;-86
2021/01/10 09:27:23;;;;;;;46.28;31.02;;;1.90;99.90;;;;;;5035833;28;20241;-86
2021/01/10 09:29:50;;;;;;;55.65;34.78;;;2.00;99.90;;;;;;5036258;28;20195;-86
2021/01/10 09:32:21;;;;;;;54.05;33.75;;;2.10;99.90;;;;;;5036213;28;20206;-87
2021/01/10 09:34:55;;;;;;;53.65;35.88;;;2.10;99.90;;;;;;5036305;28;20214;-87
2021/01/10 09:37:27;;;;;;;56.30;32.55;;;2.10;99.90;;;;;;5049794;28;20187;-87
2021/01/10 09:39:54;;;;;;;56.28;30.25;;;2.20;99.90;;;;;;5063018;28;20222;-86
2021/01/10 09:42:20;;;;;;;51.33;30.35;;;2.30;99.90;;;;;;5059517;28;20647;-87
2021/01/10 09:44:56;;;;;;;50.30;30.70;;;2.30;99.90;;;;;;5056227;28;20194;-87
2021/01/10 09:47:35;;;;;;;47.50;29.38;;;2.40;99.90;;;;;;5055885;28;20205;-87
2021/01/10 09:50:01;;;;;;;52.80;33.25;;;2.50;99.90;;;;;;5055620;28;20703;-87
2021/01/10 09:52:27;;;;;;;48.28;29.65;;;2.50;99.90;;;;;;5055643;28;20574;-86
2021/01/10 09:54:57;;;;;;;45.78;29.80;;;2.50;99.90;;;;;;5055589;28;20191;-87
2021/01/10 09:57:23;;;;;;;42.10;26.60;;;2.50;99.90;;;;;;5054567;28;20200;-86
2021/01/10 10:00:04;;;;;;;59.55;30.13;;;2.50;99.90;;;;;;5055331;28;20248;-87
2021/01/10 10:02:35;;;;;;;48.72;34.22;;;2.50;99.90;;;;;;5055134;28;20214;-86
2021/01/10 10:05:10;;;;;;;50.00;27.05;;;2.60;99.90;;;;;;5055650;28;20202;-86
2021/01/10 10:07:40;;;;;;;37.40;25.67;;;2.50;99.90;;;;;;5041267;28;20192;-87
2021/01/10 10:10:08;;;;;;;38.25;25.92;;;2.60;99.90;;;;;;5038803;28;20196;-87
2021/01/10 10:12:34;;;;;;;39.45;24.40;;;2.70;99.90;;;;;;5035456;28;20578;-87
2021/01/10 10:15:07;;;;;;;40.08;25.20;;;2.70;99.90;;;;;;5037122;28;20195;-88
2021/01/10 10:17:35;;;;;;;36.95;23.80;;;2.70;99.90;;;;;;5046809;28;20204;-90
2021/01/10 10:20:07;;;;;;;36.08;24.90;;;2.80;99.90;;;;;;5055446;28;20215;-93
2021/01/10 10:22:34;;;;;;;53.45;27.40;;;2.70;99.90;;;;;;5052524;28;20255;-90
2021/01/10 10:25:03;;;;;;;36.90;25.02;;;2.80;99.90;;;;;;5046329;28;20567;-91
2021/01/10 10:27:31;;;;;;;38.20;24.88;;;2.80;99.90;;;;;;5042161;28;20221;-91
2021/01/10 10:29:59;;;;;;;42.03;27.65;;;2.80;99.90;;;;;;5053129;28;20203;-90
2021/01/10 10:32:26;;;;;;;39.92;24.73;;;2.80;99.90;;;;;;5036521;28;20194;-91
2021/01/10 10:34:53;;;;;;;35.67;23.10;;;2.90;99.90;;;;;;5035705;28;20207;-90
2021/01/10 10:37:20;;;;;;;38.90;26.15;;;2.90;99.90;;;;;;5045001;28;20223;-89
2021/01/10 10:39:47;;;;;;;36.03;22.25;;;3.00;99.90;;;;;;5041665;28;20210;-90
2021/01/10 10:42:15;;;;;;;36.25;21.83;;;3.00;99.90;;;;;;5053161;28;20185;-89
2021/01/10 10:44:42;;;;;;;28.00;19.40;;;3.00;99.90;;;;;;5052722;28;20190;-91
2021/01/10 10:47:11;;;;;;;38.47;21.75;;;3.10;99.90;;;;;;5054583;28;20222;-90
2021/01/10 10:49:39;;;;;;;35.50;24.55;;;3.10;99.90;;;;;;5058984;28;20210;-91
2021/01/10 10:52:08;;;;;;;32.35;20.42;;;3.00;99.90;;;;;;5058842;28;20220;-90
2021/01/10 10:54:35;;;;;;;32.83;20.38;;;3.00;99.90;;;;;;5043485;28;20250;-90
2021/01/10 10:57:01;;;;;;;39.53;24.08;;;3.00;99.90;;;;;;5047126;28;20373;-90
2021/01/10 10:59:28;;;;;;;32.63;20.42;;;3.00;99.90;;;;;;5060434;28;20230;-91
2021/01/10 11:01:54;;;;;;;36.35;21.77;;;3.10;99.90;;;;;;5057240;28;20184;-91
2021/01/10 11:04:20;;;;;;;33.53;21.40;;;3.10;99.90;;;;;;5059217;28;20202;-91
2021/01/10 11:06:48;;;;;;;30.10;18.48;;;3.20;99.90;;;;;;5055772;28;20191;-91
2021/01/10 11:09:14;;;;;;;31.13;21.25;;;3.30;99.90;;;;;;5045995;28;20203;-91
2021/01/10 11:11:43;;;;;;;25.38;18.77;;;3.40;99.90;;;;;;5042583;28;20589;-92
2021/01/10 11:14:11;;;;;;;28.17;18.08;;;3.40;99.90;;;;;;5038352;28;20189;-91
2021/01/10 11:16:38;;;;;;;29.23;19.08;;;3.40;99.90;;;;;;5046981;28;20197;-90
2021/01/10 11:19:06;;;;;;;29.98;18.65;;;3.40;99.90;;;;;;5049728;28;20217;-91
2021/01/10 11:21:35;;;;;;;34.33;19.08;;;3.30;99.90;;;;;;5050673;28;20244;-92
2021/01/10 11:24:03;;;;;;;27.17;18.30;;;3.30;99.90;;;;;;5045112;28;20185;-91
2021/01/10 11:26:29;;;;;;;32.20;18.90;;;3.30;99.90;;;;;;5043046;28;20223;-91
2021/01/10 11:28:56;;;;;;;29.83;19.55;;;3.30;99.90;;;;;;5044065;28;20192;-91
2021/01/10 11:31:24;;;;;;;31.92;19.75;;;3.30;99.90;;;;;;5039562;28;20270;-91
2021/01/10 11:33:50;;;;;;;29.40;17.20;;;3.30;99.90;;;;;;5042925;28;20195;-91
2021/01/10 11:36:18;;;;;;;24.70;18.98;;;3.40;99.90;;;;;;5035961;28;20238;-92
2021/01/10 11:38:47;;;;;;;32.85;17.98;;;3.50;99.90;;;;;;5036225;28;20230;-91
2021/01/10 11:41:15;;;;;;;37.83;20.17;;;3.60;99.90;;;;;;5040389;28;20181;-91
2021/01/10 11:43:42;;;;;;;29.27;19.23;;;3.50;99.90;;;;;;5055310;28;20192;-91
2021/01/10 11:46:09;;;;;;;31.30;20.35;;;3.50;99.90;;;;;;5040797;28;20203;-91
2021/01/10 11:48:37;;;;;;;30.92;17.33;;;3.60;99.90;;;;;;5045873;28;20188;-91
2021/01/10 11:51:05;;;;;;;27.75;18.33;;;3.60;99.90;;;;;;5046369;28;20197;-92
2021/01/10 11:53:31;;;;;;;33.80;18.98;;;3.60;99.90;;;;;;5036168;28;20193;-91
2021/01/10 11:55:58;;;;;;;28.58;19.75;;;3.60;99.90;;;;;;5048553;28;20188;-91
2021/01/10 11:58:26;;;;;;;30.75;18.45;;;3.70;99.90;;;;;;5037008;28;20258;-91
2021/01/10 12:00:52;;;;;;;31.08;18.20;;;3.70;99.90;;;;;;5036140;28;20199;-91
2021/01/10 12:03:19;;;;;;;31.17;18.30;;;3.70;99.90;;;;;;5035833;28;20189;-91
2021/01/10 12:05:46;;;;;;;33.10;19.65;;;3.70;99.90;;;;;;5035900;28;20198;-91
2021/01/10 12:08:13;;;;;;;32.28;16.67;;;3.80;99.90;;;;;;5035948;28;20196;-90
2021/01/10 12:10:39;;;;;;;33.05;17.13;;;3.90;99.90;;;;;;5044828;28;20180;-91
2021/01/10 12:13:06;;;;;;;30.38;17.65;;;3.90;99.90;;;;;;5036497;28;20256;-91
2021/01/10 12:15:34;;;;;;;30.30;18.70;;;4.00;99.90;;;;;;5035260;28;20189;-91
2021/01/10 12:18:01;;;;;;;28.13;17.67;;;4.00;99.90;;;;;;5035608;28;20966;-91
2021/01/10 12:20:28;;;;;;;21.73;15.85;;;4.10;99.90;;;;;;5054440;28;20248;-90
2021/01/10 12:22:55;;;;;;;25.90;17.20;;;4.20;99.90;;;;;;5043519;28;20185;-93
2021/01/10 12:25:22;;;;;;;28.13;17.00;;;4.10;99.90;;;;;;5040158;28;20193;-90
2021/01/10 12:27:48;;;;;;;30.67;17.20;;;4.10;99.90;;;;;;5055411;28;20234;-91
2021/01/10 12:30:15;;;;;;;27.70;19.48;;;4.10;99.90;;;;;;5048363;28;20582;-91
2021/01/10 12:32:43;;;;;;;36.20;16.70;;;4.20;99.90;;;;;;5049585;28;20196;-90
2021/01/10 12:35:11;;;;;;;31.10;16.92;;;4.50;99.90;;;;;;5040071;28;20196;-91
2021/01/10 12:37:38;;;;;;;26.30;16.85;;;4.60;99.90;;;;;;5038997;28;20197;-91
2021/01/10 12:40:07;;;;;;;31.20;16.23;;;4.80;99.90;;;;;;5057149;28;20219;-90
2021/01/10 12:42:34;;;;;;;27.17;16.77;;;4.70;99.90;;;;;;5054752;28;20192;-90
2021/01/10 12:45:01;;;;;;;29.77;17.60;;;4.60;99.90;;;;;;5049000;28;20191;-91